createdAt,value
2018-11-27T00:00:18.381Z,51.97
2018-11-27T00:02:46.650Z,62.40
2018-11-27T00:05:14.931Z,55.30
2018-11-27T00:07:43.190Z,55.13
2018-11-27T00:10:11.480Z,53.73
2018-11-27T00:12:39.770Z,55.40
2018-11-27T00:15:10.541Z,57.23
2018-11-27T00:17:38.853Z,61.30
2018-11-27T00:20:14.966Z,59.47
2018-11-27T00:22:43.235Z,63.80
2018-11-27T00:25:13.570Z,56.93
2018-11-27T00:27:41.845Z,59.07
2018-11-27T00:30:11.366Z,60.43
2018-11-27T00:32:39.623Z,61.73
2018-11-27T00:35:10.992Z,62.03
2018-11-27T00:37:39.266Z,56.60
2018-11-27T00:40:11.067Z,73.60
2018-11-27T00:42:39.378Z,64.87
2018-11-27T00:45:09.850Z,58.20
2018-11-27T00:47:38.102Z,57.13
2018-11-27T00:50:10.416Z,62.27
2018-11-27T00:52:38.926Z,57.93
2018-11-27T00:55:09.206Z,55.50
2018-11-27T00:57:37.638Z,56.43
2018-11-27T01:00:09.951Z,51.30
2018-11-27T01:02:38.341Z,61.77
2018-11-27T01:05:08.450Z,58.23
2018-11-27T01:07:36.710Z,59.70
2018-11-27T01:10:07.334Z,66.93
2018-11-27T01:12:35.588Z,60.13
2018-11-27T01:15:03.911Z,57.53
2018-11-27T01:17:32.194Z,54.50
2018-11-27T01:20:00.471Z,58.53
2018-11-27T01:22:28.752Z,65.50
2018-11-27T01:24:57.065Z,59.57
2018-11-27T01:27:25.310Z,54.00
2018-11-27T01:29:53.611Z,52.60
2018-11-27T01:32:21.898Z,55.40
2018-11-27T01:34:50.376Z,55.97
2018-11-27T01:37:18.660Z,59.20
2018-11-27T01:39:46.926Z,55.50
2018-11-27T01:42:15.217Z,59.73
2018-11-27T01:44:43.478Z,53.77
2018-11-27T01:47:11.720Z,51.93
2018-11-27T01:49:40.050Z,56.83
2018-11-27T01:52:08.323Z,65.60
2018-11-27T01:54:36.593Z,53.87
2018-11-27T01:57:05.363Z,59.30
2018-11-27T01:59:33.632Z,56.83
2018-11-27T02:02:01.914Z,53.13
2018-11-27T02:04:30.314Z,56.67
2018-11-27T02:06:58.566Z,57.40
2018-11-27T02:09:26.847Z,58.30
2018-11-27T02:11:55.092Z,53.03
2018-11-27T02:14:26.690Z,55.63
2018-11-27T02:16:54.938Z,55.00
2018-11-27T02:19:23.215Z,51.20
2018-11-27T02:21:51.496Z,54.83
2018-11-27T02:24:19.762Z,53.60
2018-11-27T02:26:48.027Z,53.37
2018-11-27T02:29:16.297Z,49.87
2018-11-27T02:31:44.535Z,57.00
2018-11-27T02:34:12.931Z,54.07
2018-11-27T02:36:41.192Z,51.30
2018-11-27T02:39:09.690Z,52.60
2018-11-27T02:41:37.979Z,62.17
2018-11-27T02:44:06.379Z,55.20
2018-11-27T02:46:34.630Z,52.77
2018-11-27T02:49:02.904Z,53.00
2018-11-27T02:51:31.222Z,48.67
2018-11-27T02:53:59.503Z,52.20
2018-11-27T02:56:27.791Z,52.00
2018-11-27T02:58:56.036Z,46.53
2018-11-27T03:01:24.488Z,58.93
2018-11-27T03:03:52.898Z,55.83
2018-11-27T03:06:21.211Z,49.77
2018-11-27T03:08:49.519Z,53.60
2018-11-27T03:11:17.816Z,48.83
2018-11-27T03:13:46.111Z,47.43
2018-11-27T03:16:14.410Z,50.60
2018-11-27T03:18:42.735Z,44.77
2018-11-27T03:21:10.992Z,51.70
2018-11-27T03:23:39.289Z,47.63
2018-11-27T03:26:07.555Z,49.23
2018-11-27T03:28:35.846Z,52.60
2018-11-27T03:31:04.119Z,59.13
2018-11-27T03:33:32.574Z,45.47
2018-11-27T03:36:00.841Z,51.20
2018-11-27T03:38:29.132Z,56.67
2018-11-27T03:40:57.441Z,52.07
2018-11-27T03:43:25.744Z,56.37
2018-11-27T03:45:54.035Z,45.37
2018-11-27T03:48:22.294Z,54.53
2018-11-27T03:50:50.612Z,51.93
2018-11-27T03:53:18.910Z,55.53
2018-11-27T03:55:47.304Z,46.70
2018-11-27T03:58:15.573Z,52.73
2018-11-27T04:00:44.087Z,45.30
2018-11-27T04:03:13.201Z,58.20
2018-11-27T04:05:42.171Z,54.30
2018-11-27T04:08:10.607Z,46.00
2018-11-27T04:10:45.450Z,53.00
2018-11-27T04:13:13.699Z,47.43
2018-11-27T04:15:41.974Z,45.50
2018-11-27T04:18:10.234Z,50.97
2018-11-27T04:20:38.540Z,55.17
2018-11-27T04:23:06.832Z,55.13
2018-11-27T04:25:35.234Z,53.53
2018-11-27T04:28:03.502Z,57.90
2018-11-27T04:30:31.798Z,50.40
2018-11-27T04:33:00.091Z,46.57
2018-11-27T04:35:28.374Z,47.43
2018-11-27T04:37:56.643Z,52.17
2018-11-27T04:40:24.961Z,52.00
2018-11-27T04:42:53.253Z,46.40
2018-11-27T04:45:23.984Z,51.37
2018-11-27T04:47:52.266Z,51.57
2018-11-27T04:50:20.798Z,46.40
2018-11-27T04:52:49.208Z,50.20
2018-11-27T04:55:19.856Z,51.60
2018-11-27T04:57:47.850Z,57.27
2018-11-27T05:00:20.005Z,53.07
2018-11-27T05:02:48.364Z,47.10
2018-11-27T05:05:16.814Z,49.70
2018-11-27T05:07:45.106Z,49.67
2018-11-27T05:10:15.263Z,46.30
2018-11-27T05:12:43.803Z,55.63
2018-11-27T05:15:23.095Z,45.87
2018-11-27T05:17:52.627Z,44.90
2018-11-27T05:20:20.922Z,53.70
2018-11-27T05:22:49.178Z,55.00
2018-11-27T05:25:18.470Z,54.37
2018-11-27T05:27:50.970Z,58.37
2018-11-27T05:30:21.841Z,52.50
2018-11-27T05:32:50.134Z,51.70
2018-11-27T05:35:20.482Z,58.20
2018-11-27T05:37:49.543Z,47.60
2018-11-27T05:40:19.015Z,51.60
2018-11-27T05:42:48.202Z,56.00
2018-11-27T05:45:17.495Z,51.90
2018-11-27T05:47:45.874Z,50.77
2018-11-27T05:50:17.152Z,45.63
2018-11-27T05:52:45.474Z,51.10
2018-11-27T05:55:14.409Z,55.93
2018-11-27T05:57:43.455Z,51.73
2018-11-27T06:00:16.626Z,55.27
2018-11-27T06:02:45.276Z,50.63
2018-11-27T06:05:15.626Z,49.47
2018-11-27T06:07:43.938Z,49.50
2018-11-27T06:10:13.583Z,53.60
2018-11-27T06:12:41.855Z,52.63
2018-11-27T06:15:11.542Z,46.90
2018-11-27T06:17:39.901Z,48.10
2018-11-27T06:20:13.630Z,52.90
2018-11-27T06:22:41.954Z,51.00
2018-11-27T06:25:16.459Z,48.93
2018-11-27T06:27:45.068Z,54.50
2018-11-27T06:30:14.836Z,56.23
2018-11-27T06:32:43.163Z,55.80
2018-11-27T06:35:13.309Z,45.00
2018-11-27T06:37:41.589Z,42.53
2018-11-27T06:40:13.642Z,42.40
2018-11-27T06:42:42.036Z,47.97
2018-11-27T06:45:15.404Z,47.10
2018-11-27T06:47:44.101Z,49.43
2018-11-27T06:50:13.278Z,45.47
2018-11-27T06:52:41.693Z,50.13
2018-11-27T06:55:13.226Z,51.10
2018-11-27T06:57:41.499Z,43.07
2018-11-27T07:00:19.407Z,45.57
2018-11-27T07:02:47.678Z,54.30
2018-11-27T07:05:16.077Z,47.23
2018-11-27T07:07:44.381Z,59.73
2018-11-27T07:10:16.746Z,51.00
2018-11-27T07:12:45.178Z,49.60
2018-11-27T07:15:15.000Z,46.30
2018-11-27T07:17:43.243Z,54.53
2018-11-27T07:20:12.289Z,45.10
2018-11-27T07:22:40.567Z,46.50
2018-11-27T07:25:15.606Z,52.73
2018-11-27T07:27:48.166Z,46.57
2018-11-27T07:30:18.489Z,52.47
2018-11-27T07:32:46.850Z,69.03
2018-11-27T07:35:15.646Z,51.20
2018-11-27T07:37:44.023Z,46.07
2018-11-27T07:40:15.188Z,48.60
2018-11-27T07:42:43.458Z,65.40
2018-11-27T07:45:15.931Z,47.33
2018-11-27T07:47:44.230Z,46.47
2018-11-27T07:50:12.997Z,44.70
2018-11-27T07:52:41.359Z,51.27
2018-11-27T07:55:11.594Z,50.30
2018-11-27T07:57:40.062Z,45.07
2018-11-27T08:00:10.830Z,55.30
2018-11-27T08:02:39.207Z,49.27
2018-11-27T08:05:10.962Z,49.33
2018-11-27T08:07:39.631Z,38.23
2018-11-27T08:10:12.338Z,52.83
2018-11-27T08:12:40.562Z,52.67
2018-11-27T08:15:12.031Z,45.90
2018-11-27T08:17:41.048Z,45.40
2018-11-27T08:20:13.759Z,39.77
2018-11-27T08:22:42.897Z,46.40
2018-11-27T08:25:12.643Z,49.83
2018-11-27T08:27:40.929Z,53.70
2018-11-27T08:30:11.809Z,50.13
2018-11-27T08:32:40.182Z,44.73
2018-11-27T08:35:14.982Z,47.90
2018-11-27T08:37:43.705Z,49.13
2018-11-27T08:40:13.050Z,47.60
2018-11-27T08:42:41.333Z,45.10
2018-11-27T08:45:14.209Z,48.70
2018-11-27T08:47:42.635Z,41.50
2018-11-27T08:50:13.002Z,44.83
2018-11-27T08:52:46.469Z,42.17
2018-11-27T08:55:15.419Z,48.03
2018-11-27T08:57:44.806Z,48.63
2018-11-27T09:00:16.472Z,57.97
2018-11-27T09:02:45.547Z,52.10
2018-11-27T09:05:13.753Z,51.07
2018-11-27T09:07:44.783Z,56.00
2018-11-27T09:10:17.273Z,47.80
2018-11-27T09:12:45.850Z,37.80
2018-11-27T09:15:18.799Z,49.03
2018-11-27T09:17:49.866Z,36.63
2018-11-27T09:20:18.412Z,45.70
2018-11-27T09:22:46.903Z,39.03
2018-11-27T09:25:15.163Z,39.87
2018-11-27T09:27:43.480Z,32.03
2018-11-27T09:30:17.891Z,49.90
2018-11-27T09:32:46.233Z,43.27
2018-11-27T09:35:14.515Z,48.00
2018-11-27T09:37:42.863Z,48.23
2018-11-27T09:40:14.078Z,46.00
2018-11-27T09:42:42.425Z,46.90
2018-11-27T09:45:18.763Z,44.50
2018-11-27T09:47:48.063Z,38.20
2018-11-27T09:50:16.700Z,46.53
2018-11-27T09:52:44.966Z,45.40
2018-11-27T09:55:16.413Z,47.33
2018-11-27T09:57:44.771Z,39.87
2018-11-27T10:00:21.734Z,38.10
2018-11-27T10:02:50.709Z,45.93
2018-11-27T10:05:18.991Z,48.67
2018-11-27T10:07:47.278Z,29.20
2018-11-27T10:10:18.108Z,41.57
2018-11-27T10:12:46.569Z,42.00
2018-11-27T10:15:16.017Z,45.27
2018-11-27T10:17:45.146Z,45.67
2018-11-27T10:20:15.193Z,47.27
2018-11-27T10:22:43.311Z,42.90
2018-11-27T10:25:12.353Z,40.33
2018-11-27T10:27:41.878Z,47.77
2018-11-27T10:30:16.327Z,38.97
2018-11-27T10:32:44.626Z,47.93
2018-11-27T10:35:17.342Z,33.50
2018-11-27T10:37:45.618Z,38.97
2018-11-27T10:40:13.946Z,46.13
2018-11-27T10:42:42.262Z,42.83
2018-11-27T10:45:18.850Z,41.17
2018-11-27T10:47:48.656Z,38.73
2018-11-27T10:50:17.857Z,40.07
2018-11-27T10:52:47.369Z,45.03
2018-11-27T10:55:17.040Z,38.20
2018-11-27T10:57:45.423Z,42.13
2018-11-27T11:00:27.419Z,41.20
2018-11-27T11:03:01.199Z,44.00
2018-11-27T11:05:35.376Z,39.63
2018-11-27T11:08:03.753Z,40.47
2018-11-27T11:10:32.146Z,42.70
2018-11-27T11:13:00.781Z,38.00
2018-11-27T11:15:29.302Z,49.03
2018-11-27T11:17:58.024Z,42.10
2018-11-27T11:20:26.525Z,40.40
2018-11-27T11:22:55.154Z,43.87
2018-11-27T11:25:24.502Z,45.17
2018-11-27T11:27:54.440Z,41.40
2018-11-27T11:30:23.251Z,40.70
2018-11-27T11:32:51.749Z,41.80
2018-11-27T11:35:20.341Z,40.53
2018-11-27T11:37:49.219Z,38.47
2018-11-27T11:40:20.537Z,36.83
2018-11-27T11:42:51.276Z,43.30
2018-11-27T11:45:19.797Z,48.07
2018-11-27T11:47:48.286Z,43.20
2018-11-27T11:50:20.390Z,47.03
2018-11-27T11:52:50.343Z,44.70
2018-11-27T11:55:19.725Z,43.80
2018-11-27T11:57:47.972Z,34.90
2018-11-27T12:00:22.085Z,47.40
2018-11-27T12:02:50.552Z,44.80
2018-11-27T12:05:24.918Z,42.10
2018-11-27T12:07:48.303Z,40.80
2018-11-27T12:10:17.118Z,37.07
2018-11-27T12:12:46.390Z,36.53
2018-11-27T12:15:17.694Z,40.77
2018-11-27T12:17:46.570Z,32.30
2018-11-27T12:20:15.875Z,38.40
2018-11-27T12:22:47.318Z,37.00
2018-11-27T12:25:15.763Z,31.37
2018-11-27T12:27:44.144Z,36.07
2018-11-27T12:30:15.226Z,41.97
2018-11-27T12:32:43.658Z,38.17
2018-11-27T12:35:12.534Z,39.37
2018-11-27T12:37:40.931Z,25.77
2018-11-27T12:40:12.390Z,39.63
2018-11-27T12:42:40.618Z,30.90
2018-11-27T12:45:13.200Z,35.70
2018-11-27T12:47:41.483Z,39.13
2018-11-27T12:50:16.303Z,51.40
2018-11-27T12:52:44.595Z,40.10
2018-11-27T12:55:14.103Z,42.57
2018-11-27T12:57:42.391Z,41.10
2018-11-27T13:00:27.274Z,41.20
2018-11-27T13:02:55.542Z,38.77
2018-11-27T13:05:26.882Z,37.30
2018-11-27T13:07:59.265Z,38.40
2018-11-27T13:10:27.600Z,42.90
2018-11-27T13:12:55.886Z,49.10
2018-11-27T13:15:24.178Z,44.47
2018-11-27T13:17:53.164Z,34.10
2018-11-27T13:20:21.608Z,44.37
2018-11-27T13:22:50.988Z,40.97
2018-11-27T13:25:21.554Z,47.10
2018-11-27T13:27:51.013Z,43.70
2018-11-27T13:30:27.654Z,47.33
2018-11-27T13:33:04.298Z,40.83
2018-11-27T13:35:32.649Z,44.80
2018-11-27T13:38:01.154Z,41.00
2018-11-27T13:40:29.421Z,42.70
2018-11-27T13:42:58.997Z,47.97
2018-11-27T13:45:27.618Z,47.70
2018-11-27T13:47:55.847Z,38.70
2018-11-27T13:50:24.177Z,41.10
2018-11-27T13:52:52.628Z,40.63
2018-11-27T13:55:21.805Z,46.60
2018-11-27T13:57:50.086Z,44.87
2018-11-27T14:00:19.350Z,46.37
2018-11-27T14:02:50.997Z,40.57
2018-11-27T14:05:20.615Z,50.20
2018-11-27T14:07:48.925Z,45.30
2018-11-27T14:10:17.197Z,41.90
2018-11-27T14:12:45.473Z,41.13
2018-11-27T14:15:24.293Z,42.23
2018-11-27T14:17:52.633Z,45.40
2018-11-27T14:20:20.908Z,41.70
2018-11-27T14:22:49.812Z,45.28
2018-11-27T14:25:18.103Z,40.30
2018-11-27T14:27:47.126Z,40.83
2018-11-27T14:30:18.646Z,43.37
2018-11-27T14:32:47.245Z,45.33
2018-11-27T14:35:16.420Z,58.20
2018-11-27T14:37:45.338Z,41.57
2018-11-27T14:40:14.709Z,37.10
2018-11-27T14:42:43.061Z,40.80
2018-11-27T14:45:13.927Z,48.50
2018-11-27T14:47:42.257Z,46.00
2018-11-27T14:50:11.515Z,32.23
2018-11-27T14:52:39.814Z,37.20
2018-11-27T14:55:15.906Z,41.97
2018-11-27T14:57:44.217Z,43.63
2018-11-27T15:00:17.847Z,44.30
2018-11-27T15:02:46.118Z,43.00
2018-11-27T15:05:16.806Z,39.17
2018-11-27T15:07:45.084Z,39.37
2018-11-27T15:10:13.474Z,41.13
2018-11-27T15:12:41.752Z,40.47
2018-11-27T15:15:11.522Z,47.50
2018-11-27T15:17:39.831Z,43.80
2018-11-27T15:20:18.899Z,50.33
2018-11-27T15:22:47.162Z,43.47
2018-11-27T15:25:15.465Z,42.13
2018-11-27T15:27:43.793Z,36.47
2018-11-27T15:30:23.507Z,38.70
2018-11-27T15:32:52.986Z,35.00
2018-11-27T15:35:21.344Z,40.33
2018-11-27T15:37:49.632Z,38.03
2018-11-27T15:40:19.366Z,38.83
2018-11-27T15:42:47.698Z,38.80
2018-11-27T15:45:17.226Z,35.60
2018-11-27T15:47:45.629Z,47.20
2018-11-27T15:50:13.926Z,35.30
2018-11-27T15:52:42.189Z,40.83
2018-11-27T15:55:13.602Z,38.53
2018-11-27T15:57:41.858Z,44.13
2018-11-27T16:00:14.423Z,40.53
2018-11-27T16:02:43.169Z,48.57
2018-11-27T16:05:11.971Z,34.63
2018-11-27T16:07:40.349Z,42.20
2018-11-27T16:10:12.489Z,42.10
2018-11-27T16:12:40.758Z,40.93
2018-11-27T16:15:13.781Z,40.00
2018-11-27T16:17:42.261Z,36.00
2018-11-27T16:20:14.875Z,47.07
2018-11-27T16:22:42.607Z,37.40
2018-11-27T16:25:14.874Z,42.73
2018-11-27T16:27:43.207Z,33.10
2018-11-27T16:30:12.904Z,43.23
2018-11-27T16:32:41.181Z,36.43
2018-11-27T16:35:10.678Z,35.93
2018-11-27T16:37:39.074Z,34.00
2018-11-27T16:40:15.911Z,37.50
2018-11-27T16:42:44.252Z,49.93
2018-11-27T16:45:17.489Z,35.40
2018-11-27T16:47:45.915Z,36.00
2018-11-27T16:50:15.050Z,39.33
2018-11-27T16:52:43.537Z,36.50
2018-11-27T16:55:12.918Z,39.13
2018-11-27T16:57:41.214Z,27.30
2018-11-27T17:00:15.381Z,33.83
2018-11-27T17:02:43.658Z,36.33
2018-11-27T17:05:11.983Z,35.60
2018-11-27T17:07:40.274Z,35.70
2018-11-27T17:10:11.170Z,44.33
2018-11-27T17:12:39.481Z,42.80
2018-11-27T17:15:10.705Z,38.73
2018-11-27T17:17:39.024Z,34.77
2018-11-27T17:20:11.573Z,44.63
2018-11-27T17:22:39.870Z,36.77
2018-11-27T17:25:08.210Z,41.27
2018-11-27T17:27:39.263Z,31.10
2018-11-27T17:30:27.595Z,44.27
2018-11-27T17:32:59.437Z,51.70
2018-11-27T17:35:31.850Z,42.70
2018-11-27T17:38:00.153Z,36.27
2018-11-27T17:40:30.060Z,32.63
2018-11-27T17:42:59.408Z,49.13
2018-11-27T17:45:28.372Z,43.57
2018-11-27T17:47:58.154Z,37.97
2018-11-27T17:50:28.655Z,45.63
2018-11-27T17:52:59.989Z,37.47
2018-11-27T17:55:28.500Z,61.33
2018-11-27T17:57:56.741Z,42.67
2018-11-27T18:00:27.035Z,43.73
2018-11-27T18:02:56.959Z,45.63
2018-11-27T18:05:25.278Z,51.43
2018-11-27T18:07:53.583Z,46.03
2018-11-27T18:10:21.891Z,40.47
2018-11-27T18:12:50.489Z,23.17
2018-11-27T18:15:20.005Z,51.30
2018-11-27T18:17:48.313Z,38.47
2018-11-27T18:20:16.558Z,44.60
2018-11-27T18:22:44.817Z,31.83
2018-11-27T18:25:15.938Z,41.07
2018-11-27T18:27:45.470Z,32.50
2018-11-27T18:30:15.683Z,39.70
2018-11-27T18:32:43.957Z,43.63
2018-11-27T18:35:13.808Z,33.00
2018-11-27T18:37:42.104Z,36.17
2018-11-27T18:40:11.454Z,31.97
2018-11-27T18:42:39.911Z,37.90
2018-11-27T18:45:16.032Z,42.40
2018-11-27T18:47:44.350Z,43.80
2018-11-27T18:50:12.969Z,40.97
2018-11-27T18:52:41.752Z,47.07
2018-11-27T18:55:12.975Z,32.30
2018-11-27T18:57:41.889Z,45.23
2018-11-27T19:00:15.743Z,40.80
2018-11-27T19:02:44.029Z,34.50
2018-11-27T19:05:12.492Z,40.70
2018-11-27T19:07:40.763Z,29.67
2018-11-27T19:10:10.554Z,37.77
2018-11-27T19:12:38.931Z,27.00
2018-11-27T19:15:11.099Z,30.50
2018-11-27T19:17:39.345Z,37.17
2018-11-27T19:20:10.729Z,42.50
2018-11-27T19:22:38.998Z,33.77
2018-11-27T19:25:09.578Z,44.10
2018-11-27T19:27:37.844Z,45.37
2018-11-27T19:30:15.872Z,40.00
2018-11-27T19:32:39.447Z,33.17
2018-11-27T19:35:09.724Z,34.17
2018-11-27T19:37:38.426Z,35.90
2018-11-27T19:40:15.705Z,41.27
2018-11-27T19:42:43.988Z,31.37
2018-11-27T19:45:17.688Z,37.93
2018-11-27T19:47:46.135Z,36.87
2018-11-27T19:50:14.769Z,32.37
2018-11-27T19:52:44.167Z,40.33
2018-11-27T19:55:14.701Z,26.43
2018-11-27T19:57:43.030Z,38.77
2018-11-27T20:00:15.288Z,39.03
2018-11-27T20:02:46.594Z,35.57
2018-11-27T20:05:16.216Z,47.63
2018-11-27T20:07:44.647Z,35.57
2018-11-27T20:10:14.533Z,41.93
2018-11-27T20:12:42.838Z,37.43
2018-11-27T20:15:16.836Z,38.93
2018-11-27T20:17:44.944Z,29.40
2018-11-27T20:20:14.907Z,40.03
2018-11-27T20:22:43.941Z,38.70
2018-11-27T20:25:13.475Z,37.17
2018-11-27T20:27:42.120Z,56.07
2018-11-27T20:30:14.544Z,33.83
2018-11-27T20:32:44.576Z,36.50
2018-11-27T20:35:14.066Z,34.97
2018-11-27T20:37:42.778Z,26.40
2018-11-27T20:40:14.142Z,39.87
2018-11-27T20:42:42.600Z,34.27
2018-11-27T20:45:19.514Z,22.63
2018-11-27T20:47:49.373Z,28.93
2018-11-27T20:50:19.946Z,38.03
2018-11-27T20:52:48.551Z,36.97
2018-11-27T20:55:17.347Z,27.20
2018-11-27T20:57:48.374Z,25.73
2018-11-27T21:00:21.429Z,33.13
2018-11-27T21:02:50.485Z,34.43
2018-11-27T21:05:18.793Z,30.40
2018-11-27T21:07:47.473Z,24.30
2018-11-27T21:10:16.383Z,31.27
2018-11-27T21:12:45.586Z,29.17
2018-11-27T21:15:15.919Z,28.47
2018-11-27T21:17:44.903Z,38.20
2018-11-27T21:20:14.428Z,28.87
2018-11-27T21:22:42.991Z,29.40
2018-11-27T21:25:12.851Z,31.90
2018-11-27T21:27:41.794Z,36.07
2018-11-27T21:30:13.550Z,31.57
2018-11-27T21:32:42.174Z,24.37
2018-11-27T21:35:12.721Z,26.70
2018-11-27T21:37:41.175Z,28.50
2018-11-27T21:40:12.802Z,31.33
2018-11-27T21:42:41.070Z,34.83
2018-11-27T21:45:12.502Z,29.60
2018-11-27T21:47:40.813Z,27.30
2018-11-27T21:50:11.336Z,31.83
2018-11-27T21:52:39.626Z,29.37
2018-11-27T21:55:09.684Z,30.10
2018-11-27T21:57:37.980Z,29.80
2018-11-27T22:00:13.109Z,24.43
2018-11-27T22:02:41.401Z,19.43
2018-11-27T22:05:10.188Z,35.37
2018-11-27T22:07:38.509Z,23.90
2018-11-27T22:10:10.829Z,34.63
2018-11-27T22:12:39.225Z,26.00
2018-11-27T22:15:09.867Z,31.87
2018-11-27T22:17:38.125Z,33.67
2018-11-27T22:20:08.418Z,18.10
2018-11-27T22:22:36.728Z,23.63
2018-11-27T22:25:06.756Z,20.73
2018-11-27T22:27:35.062Z,17.33
2018-11-27T22:30:03.394Z,26.77
2018-11-27T22:32:31.692Z,29.10
2018-11-27T22:34:59.953Z,30.80
2018-11-27T22:37:28.260Z,29.63
2018-11-27T22:39:56.527Z,24.93
2018-11-27T22:42:24.811Z,26.93
2018-11-27T22:44:53.075Z,21.97
2018-11-27T22:47:21.362Z,28.83
2018-11-27T22:49:49.648Z,34.93
2018-11-27T22:52:17.938Z,23.00
2018-11-27T22:54:46.230Z,31.40
2018-11-27T22:57:14.489Z,28.80
2018-11-27T22:59:42.810Z,30.40
2018-11-27T23:02:11.117Z,31.80
2018-11-27T23:04:39.397Z,29.50
2018-11-27T23:07:07.683Z,34.27
2018-11-27T23:09:35.966Z,34.70
2018-11-27T23:12:04.305Z,33.47
2018-11-27T23:14:32.585Z,30.63
2018-11-27T23:17:00.856Z,28.33
2018-11-27T23:19:29.162Z,30.33
2018-11-27T23:21:57.469Z,18.00
2018-11-27T23:24:25.783Z,30.20
2018-11-27T23:26:54.049Z,21.07
2018-11-27T23:29:22.329Z,42.90
2018-11-27T23:31:50.626Z,18.13
2018-11-27T23:34:18.911Z,40.40
2018-11-27T23:36:47.178Z,30.93
2018-11-27T23:39:16.377Z,39.33
2018-11-27T23:41:44.654Z,38.70
2018-11-27T23:44:12.926Z,24.10
2018-11-27T23:46:41.179Z,21.97
2018-11-27T23:49:09.474Z,33.50
2018-11-27T23:51:37.747Z,20.30
2018-11-27T23:54:06.529Z,30.33
2018-11-27T23:56:34.814Z,29.40
2018-11-27T23:59:03.067Z,30.70
